Rio del Mar, California
Current Conditions -  °F | °C
As of 4:53 PM on Tuesday 25 Nov 2014 (Local Time) from KWVI Reporting Station
Clear Clear  
Wind Chill: 69°   Ceiling: Unl
Heat Index: 69°   Visibility: 10mi
Dew Point: 45°   Wind: 0mph
Humidity: 42%   Direction: NA
Pressure: 30.33"   Gusts: NA
Location:  37.0137°N, 121.877°W
Report Text: KWVI 260053Z AUTO 00000KT 10SM CLR 21/07 A3033 RMK AO2 SLP269 T02060072
Loading
Personal Weather Stations






























Interactive Weather Map New forecast layout! Learn more

10-Day Weather Forecast

Advertisements
Track Severe Weather on mobile